Time;durP1;ratioP1;P1;durP2;ratioP2;P2;SDS_P1;SDS_P2;PMS_P1;PMS_P2;Temp;Humidity;BMP_temperature;BMP_pressure;BME280_temperature;BME280_humidity;BME280_pressure;Samples;Min_cycle;Max_cycle;Signal;HPM_P1;HPM_P2
2022/01/11 00:00:41;;;;;;;9.25;3.65;;;;;;;0.65;91.69;103139.59;4992961;28;96659;-42
2022/01/11 00:03:07;;;;;;;8.30;2.58;;;;;;;0.55;91.97;103118.94;4994367;28;96888;-42
2022/01/11 00:05:43;;;;;;;9.48;3.92;;;;;;;0.65;91.91;103136.91;4994226;28;97715;-42
2022/01/11 00:08:10;;;;;;;5.85;2.60;;;;;;;0.65;92.18;103133.38;4994341;28;99213;-42
2022/01/11 00:10:48;;;;;;;7.05;3.15;;;;;;;0.63;91.88;103117.31;4992854;28;96594;-42
2022/01/11 00:13:16;;;;;;;32.10;9.20;;;;;;;0.58;91.80;103127.91;4993981;28;96677;-42
2022/01/11 00:15:42;;;;;;;5.18;2.35;;;;;;;0.56;91.91;103115.44;4992132;28;98198;-42
2022/01/11 00:18:07;;;;;;;5.50;1.88;;;;;;;0.59;91.86;103104.81;4994019;28;97833;-42
2022/01/11 00:20:35;;;;;;;8.48;4.32;;;;;;;0.68;92.01;103136.06;4994154;28;96424;-42
2022/01/11 00:25:38;;;;;;;16.75;5.82;;;;;;;0.55;91.87;103125.19;4993970;28;97976;-42
2022/01/11 00:28:05;;;;;;;24.50;5.88;;;;;;;0.59;91.60;103142.13;4992191;28;99373;-42
2022/01/11 00:30:34;;;;;;;8.18;2.38;;;;;;;0.64;91.78;103148.44;4994078;28;96448;-42
2022/01/11 00:33:02;;;;;;;10.88;4.90;;;;;;;0.67;92.07;103153.84;4992352;28;96771;-42
2022/01/11 00:35:38;;;;;;;10.52;4.50;;;;;;;0.64;91.60;103153.78;4992185;28;101121;-42
2022/01/11 00:38:04;;;;;;;6.85;2.38;;;;;;;0.54;91.83;103126.06;4993565;28;98843;-42
2022/01/11 00:40:30;;;;;;;1.75;1.45;;;;;;;0.64;92.09;103151.09;4991489;28;97880;-42
2022/01/11 00:42:59;;;;;;;5.32;2.13;;;;;;;0.59;91.64;103148.34;4993449;28;101382;-42
2022/01/11 00:45:25;;;;;;;7.32;2.75;;;;;;;0.54;92.09;103141.16;4993611;28;97878;-42
2022/01/11 00:47:51;;;;;;;6.30;3.17;;;;;;;0.67;92.12;103180.53;4992774;28;97341;-42
2022/01/11 00:50:17;;;;;;;7.18;2.38;;;;;;;0.63;92.21;103160.88;4993304;28;103204;-42
2022/01/11 00:52:52;;;;;;;2.78;1.75;;;;;;;0.58;92.06;103145.69;4993537;28;96735;-42
2022/01/11 00:55:17;;;;;;;8.57;4.60;;;;;;;0.64;92.53;103156.44;4992105;28;125945;-42
2022/01/11 00:57:43;;;;;;;2.58;1.98;;;;;;;0.57;92.38;103141.22;4993884;28;97243;-42
2022/01/11 01:00:11;;;;;;;10.90;4.13;;;;;;;0.71;92.19;103163.66;4993342;28;96626;-42
2022/01/11 01:02:38;;;;;;;4.53;2.42;;;;;;;0.64;91.94;103129.78;4993339;28;97739;-42
2022/01/11 01:05:04;;;;;;;5.88;3.55;;;;;;;0.55;92.40;103138.53;4991309;28;100985;-42
2022/01/11 01:07:30;;;;;;;9.32;4.75;;;;;;;0.65;92.21;103150.25;4991649;28;101086;-42
2022/01/11 01:10:05;;;;;;;9.48;4.38;;;;;;;0.78;92.07;103164.69;4993571;28;96500;-42
2022/01/11 01:12:30;;;;;;;5.10;2.35;;;;;;;0.76;92.20;103154.00;4993601;28;96583;-42
2022/01/11 01:14:56;;;;;;;10.27;3.53;;;;;;;0.84;91.97;103167.47;4991686;28;100678;-42
2022/01/11 01:17:21;;;;;;;7.90;3.22;;;;;;;0.72;91.73;103138.81;4990538;28;126795;-42
2022/01/11 01:19:47;;;;;;;6.07;2.28;;;;;;;0.86;91.71;103168.38;4993378;28;96555;-42
2022/01/11 01:22:12;;;;;;;5.38;1.33;;;;;;;0.65;92.04;103136.91;4992923;28;103819;-42
2022/01/11 01:24:38;;;;;;;6.43;4.07;;;;;;;0.68;91.86;103157.41;4991523;28;101106;-42
2022/01/11 01:27:04;;;;;;;7.22;3.30;;;;;;;0.77;91.81;103176.22;4992777;28;98951;-42
2022/01/11 01:29:29;;;;;;;2.42;1.85;;;;;;;0.59;92.12;103147.47;4990966;28;97480;-42
2022/01/11 01:31:55;;;;;;;2.63;1.33;;;;;;;0.60;91.71;103139.50;4992563;28;96837;-42
2022/01/11 01:34:21;;;;;;;7.13;2.67;;;;;;;0.75;91.53;103175.31;4992597;28;99802;-42
2022/01/11 01:36:46;;;;;;;9.30;3.55;;;;;;;0.54;91.31;103154.50;4992776;28;97865;-42
2022/01/11 01:39:12;;;;;;;8.73;1.95;;;;;;;0.46;91.86;103146.38;4991016;28;109809;-42
2022/01/11 01:41:42;;;;;;;6.75;2.40;;;;;;;0.65;92.10;103168.03;4992903;28;96778;-42
2022/01/11 01:44:07;;;;;;;6.45;3.33;;;;;;;0.62;91.85;103174.19;4991435;28;98895;-42
2022/01/11 01:46:33;;;;;;;2.22;1.30;;;;;;;0.56;92.03;103161.66;4993088;28;97877;-42
2022/01/11 01:49:00;;;;;;;12.82;4.53;;;;;;;0.70;91.69;103182.34;4992931;28;96448;-42
2022/01/11 01:51:26;;;;;;;6.40;3.13;;;;;;;0.68;91.48;103179.63;4992671;28;96720;-42
2022/01/11 01:53:51;;;;;;;13.15;3.88;;;;;;;0.71;91.74;103189.44;4990363;28;98450;-42
2022/01/11 01:56:20;;;;;;;5.80;3.35;;;;;;;0.70;91.48;103185.00;4992186;28;99338;-42
2022/01/11 01:58:46;;;;;;;6.28;2.88;;;;;;;0.69;91.55;103181.44;4991243;28;96511;-42
2022/01/11 02:01:13;;;;;;;16.17;7.43;;;;;;;0.42;91.60;103144.50;4992651;28;96729;-42
2022/01/11 02:03:48;;;;;;;2.78;1.02;;;;;;;0.58;91.64;103170.56;4992175;28;98207;-42
2022/01/11 02:06:19;;;;;;;3.55;2.45;;;;;;;0.72;91.37;103199.28;4992443;28;98295;-42
2022/01/11 02:08:45;;;;;;;8.17;3.73;;;;;;;0.55;91.42;103166.94;4991177;28;96616;-42
2022/01/11 02:11:15;;;;;;;9.25;4.95;;;;;;;0.56;91.30;103172.31;4991344;28;96777;-42
2022/01/11 02:13:40;;;;;;;3.55;2.40;;;;;;;0.62;91.62;103174.19;4990927;28;100859;-42
2022/01/11 02:16:06;;;;;;;10.38;3.60;;;;;;;0.68;91.34;103187.63;4992176;28;97282;-42
2022/01/11 02:18:31;;;;;;;8.55;4.20;;;;;;;0.74;91.17;103198.41;4991791;28;96539;-42
2022/01/11 02:20:58;;;;;;;2.40;1.60;;;;;;;0.57;91.59;103182.13;4992313;28;96702;-42
2022/01/11 02:23:26;;;;;;;3.40;2.47;;;;;;;0.69;91.19;103201.84;4990642;28;98366;-42
2022/01/11 02:25:51;;;;;;;8.50;2.28;;;;;;;0.62;91.31;103191.09;4992144;28;97369;-42
2022/01/11 02:28:20;;;;;;;10.23;4.32;;;;;;;0.56;91.46;103176.75;4992037;28;96495;-42
2022/01/11 02:30:47;;;;;;;10.35;4.18;;;;;;;0.66;91.06;103197.38;4990484;28;96824;-42
2022/01/11 02:33:25;;;;;;;7.32;3.63;;;;;;;0.66;91.33;103204.47;4976177;28;101077;-42
2022/01/11 02:35:51;;;;;;;6.10;3.38;;;;;;;0.66;91.48;103197.38;4972603;28;97501;-42
2022/01/11 02:38:17;;;;;;;6.55;3.00;;;;;;;0.63;91.15;103192.00;4972231;28;96588;-42
2022/01/11 02:40:44;;;;;;;14.65;5.75;;;;;;;0.57;91.29;103183.88;4970825;28;96862;-42
2022/01/11 02:43:18;;;;;;;17.65;9.05;;;;;;;0.66;91.75;103193.81;4970025;28;100839;-42
2022/01/11 02:45:44;;;;;;;3.80;2.65;;;;;;;0.63;91.73;103192.00;4971571;28;112892;-42
2022/01/11 02:48:09;;;;;;;4.97;1.77;;;;;;;0.56;91.36;103180.31;4971937;28;96447;-42
2022/01/11 02:50:34;;;;;;;10.60;3.60;;;;;;;0.60;91.40;103176.84;4972260;28;96830;-42
2022/01/11 02:53:00;;;;;;;14.38;7.47;;;;;;;0.59;90.88;103177.69;4971947;28;98078;-42
2022/01/11 02:55:25;;;;;;;15.63;8.70;;;;;;;0.61;91.31;103185.72;4971594;28;99744;-42
2022/01/11 02:57:51;;;;;;;4.32;2.45;;;;;;;0.63;91.67;103192.00;4971697;28;96668;-42
2022/01/11 03:00:19;;;;;;;1.98;1.17;;;;;;;0.60;91.37;103189.28;4971534;28;119754;-42
2022/01/11 03:02:46;;;;;;;5.35;3.10;;;;;;;0.72;91.34;103209.94;4971608;28;98964;-42
2022/01/11 03:05:12;;;;;;;9.15;3.47;;;;;;;0.61;91.45;103172.41;4971941;28;97889;-42
2022/01/11 03:07:40;;;;;;;16.08;5.95;;;;;;;0.58;91.77;103183.91;4971499;28;96683;-42
2022/01/11 03:10:16;;;;;;;13.35;7.38;;;;;;;0.62;91.58;103185.78;4970997;28;96943;-42
2022/01/11 03:12:43;;;;;;;5.38;3.80;;;;;;;0.58;91.37;103191.91;4973852;28;99558;-42
2022/01/11 03:15:11;;;;;;;10.80;6.38;;;;;;;0.66;91.54;103205.38;4975191;28;97805;-42
2022/01/11 03:17:37;;;;;;;5.35;3.65;;;;;;;0.54;91.65;103181.16;4973959;28;96545;-42
2022/01/11 03:20:03;;;;;;;3.80;1.85;;;;;;;0.76;91.44;103226.03;4973767;28;96770;-42
2022/01/11 03:22:28;;;;;;;6.30;3.90;;;;;;;0.70;91.39;103214.34;4975059;28;97497;-42
2022/01/11 03:24:53;;;;;;;13.98;6.05;;;;;;;0.73;91.43;103225.94;4975173;28;99415;-42
2022/01/11 03:27:18;;;;;;;8.43;4.53;;;;;;;0.62;91.25;103204.44;4973985;28;119748;-42
2022/01/11 03:29:44;;;;;;;8.43;4.22;;;;;;;0.71;91.67;103225.00;4974775;28;112512;-42
2022/01/11 03:32:10;;;;;;;4.85;2.03;;;;;;;0.63;91.61;103210.66;4979158;28;97889;-42
2022/01/11 03:34:35;;;;;;;5.40;2.92;;;;;;;0.67;91.41;103212.53;4993236;28;99727;-42
2022/01/11 03:37:00;;;;;;;4.30;2.75;;;;;;;0.68;91.52;103206.31;4994149;28;115323;-42
2022/01/11 03:39:27;;;;;;;10.18;4.82;;;;;;;0.62;91.40;103196.44;4994665;28;96844;-42
2022/01/11 03:41:53;;;;;;;1.20;1.13;;;;;;;0.74;91.69;103210.84;4994556;28;97479;-42
2022/01/11 03:44:20;;;;;;;18.13;7.80;;;;;;;0.63;91.65;103200.88;4993098;28;99304;-42
2022/01/11 03:46:45;;;;;;;19.70;6.13;;;;;;;0.62;91.70;103195.50;4994782;28;96495;-42
2022/01/11 03:49:10;;;;;;;3.67;1.83;;;;;;;0.61;91.82;103188.41;4995009;28;96840;-42
2022/01/11 03:51:38;;;;;;;10.30;3.90;;;;;;;0.69;91.58;103218.78;4992799;28;115838;-42
2022/01/11 03:54:11;;;;;;;13.63;6.30;;;;;;;0.57;91.77;103187.47;4993773;28;97878;-42
2022/01/11 03:56:37;;;;;;;4.78;2.85;;;;;;;0.65;91.80;103202.69;4992912;28;96781;-42
2022/01/11 03:59:06;;;;;;;9.95;4.70;;;;;;;0.67;91.78;103208.94;4993212;28;96835;-42
2022/01/11 04:01:36;;;;;;;8.25;3.08;;;;;;;0.52;91.26;103183.78;4994032;28;99395;-42
2022/01/11 04:04:02;;;;;;;6.28;2.55;;;;;;;0.63;91.65;103195.56;4992755;28;99212;-42
2022/01/11 04:06:27;;;;;;;7.63;4.30;;;;;;;0.57;91.33;103190.13;4994342;28;96580;-42
2022/01/11 04:08:53;;;;;;;5.72;3.42;;;;;;;0.69;91.46;103201.84;4994384;28;96728;-42
2022/01/11 04:11:18;;;;;;;7.43;4.85;;;;;;;0.73;91.78;103201.94;4992640;28;99245;-42
2022/01/11 04:13:43;;;;;;;12.93;6.25;;;;;;;0.75;91.13;103209.97;4994648;28;97356;-42
2022/01/11 04:16:09;;;;;;;6.97;4.25;;;;;;;0.73;91.30;103204.59;4994122;28;98276;-42
2022/01/11 04:18:34;;;;;;;10.43;4.47;;;;;;;0.60;91.15;103183.94;4993526;28;114151;-42
2022/01/11 04:21:00;;;;;;;8.07;4.68;;;;;;;0.55;90.93;103165.19;4993363;28;97746;-42
2022/01/11 04:23:26;;;;;;;7.13;3.05;;;;;;;0.71;91.47;103206.34;4992896;28;97342;-42
2022/01/11 04:25:52;;;;;;;11.60;4.20;;;;;;;0.69;91.45;103210.78;4994057;28;96618;-42
2022/01/11 04:28:17;;;;;;;8.30;3.85;;;;;;;0.71;91.85;103219.69;4994129;28;96662;-42
2022/01/11 04:30:42;;;;;;;8.90;4.07;;;;;;;0.76;91.67;103220.69;4993775;28;97886;-42
2022/01/11 04:33:08;;;;;;;4.30;3.67;;;;;;;0.59;91.21;103187.47;4992881;28;114696;-42
2022/01/11 04:35:33;;;;;;;9.68;3.45;;;;;;;0.69;91.32;103207.19;4993874;28;96529;-42
2022/01/11 04:37:59;;;;;;;5.95;2.15;;;;;;;0.67;91.76;103208.94;4994094;28;96838;-42
2022/01/11 04:40:24;;;;;;;10.40;4.88;;;;;;;0.55;91.96;103189.19;4993699;28;97909;-42
2022/01/11 04:42:49;;;;;;;9.80;4.20;;;;;;;0.69;91.21;103220.53;4993563;28;103416;-42
2022/01/11 04:45:16;;;;;;;12.88;4.22;;;;;;;0.73;91.61;103228.63;4993329;28;96493;-42
2022/01/11 04:47:44;;;;;;;5.95;3.30;;;;;;;0.74;91.52;103229.50;4993702;28;96823;-42
2022/01/11 04:50:10;;;;;;;5.97;3.13;;;;;;;0.75;91.59;103228.66;4991999;28;99384;-42
2022/01/11 04:52:36;;;;;;;9.98;4.80;;;;;;;0.63;91.04;103211.56;4993029;28;100895;-42
2022/01/11 04:55:02;;;;;;;6.55;4.18;;;;;;;0.73;91.35;103225.94;4991755;28;96775;-42
2022/01/11 04:57:27;;;;;;;12.05;5.15;;;;;;;0.68;91.34;103211.63;4993342;28;96860;-42
2022/01/11 04:59:53;;;;;;;4.63;3.17;;;;;;;0.60;91.30;103207.94;4993573;28;97105;-42
2022/01/11 05:02:19;;;;;;;4.82;2.88;;;;;;;0.72;91.26;103218.84;4992178;28;101040;-42
2022/01/11 05:04:44;;;;;;;7.25;2.30;;;;;;;0.75;91.46;103220.66;4993376;28;96442;-41
2022/01/11 05:07:09;;;;;;;15.30;6.07;;;;;;;0.69;91.12;103213.44;4993596;28;96819;-42
2022/01/11 05:09:35;;;;;;;4.32;2.58;;;;;;;0.73;91.25;103209.94;4992462;28;108686;-42
2022/01/11 05:12:00;;;;;;;9.75;4.10;;;;;;;0.57;90.99;103187.47;4992158;28;127893;-42
2022/01/11 05:14:25;;;;;;;10.23;4.20;;;;;;;0.58;91.38;103183.03;4992566;28;122147;-42
2022/01/11 05:16:51;;;;;;;9.02;4.18;;;;;;;0.75;91.06;103216.22;4993053;28;96878;-42
2022/01/11 05:19:16;;;;;;;8.80;5.72;;;;;;;0.61;91.47;103197.28;4991771;28;99024;-42
2022/01/11 05:21:50;;;;;;;6.32;3.00;;;;;;;0.74;91.62;103225.09;4992058;28;124798;-42
2022/01/11 05:24:15;;;;;;;8.57;2.60;;;;;;;0.75;91.47;103231.31;4993037;28;101342;-42
2022/01/11 05:26:41;;;;;;;10.60;6.10;;;;;;;0.75;91.11;103224.22;4993622;28;96746;-42
2022/01/11 05:29:06;;;;;;;14.68;5.65;;;;;;;0.65;91.39;103216.03;4992213;28;126858;-42
2022/01/11 05:31:35;;;;;;;8.65;4.43;;;;;;;0.62;91.18;103222.19;4992409;28;112640;-42
2022/01/11 05:34:01;;;;;;;11.27;5.38;;;;;;;0.72;91.42;103234.84;4992351;28;96629;-42
2022/01/11 05:36:26;;;;;;;10.50;4.35;;;;;;;0.74;91.27;103243.75;4974836;28;96891;-42
2022/01/11 05:38:52;;;;;;;9.15;3.80;;;;;;;0.63;91.29;103224.00;4992871;28;97995;-42
2022/01/11 05:41:17;;;;;;;4.88;2.35;;;;;;;0.72;91.35;103240.16;4991726;28;126798;-42
2022/01/11 05:43:42;;;;;;;5.13;2.20;;;;;;;0.73;91.17;103236.63;4993107;28;96427;-42
2022/01/11 05:46:07;;;;;;;14.82;6.00;;;;;;;0.76;91.31;103244.69;4992757;28;96729;-42
2022/01/11 05:48:33;;;;;;;5.20;2.97;;;;;;;0.68;91.41;103226.75;4992662;28;97427;-42
2022/01/11 05:50:59;;;;;;;3.75;2.03;;;;;;;0.67;91.53;103235.59;4993069;28;97776;-42
2022/01/11 05:53:25;;;;;;;9.48;4.85;;;;;;;0.63;90.96;103234.66;4992418;28;96885;-42
2022/01/11 05:55:51;;;;;;;14.45;6.85;;;;;;;0.65;90.87;103243.59;4990907;28;96718;-42
2022/01/11 05:58:16;;;;;;;17.73;7.28;;;;;;;0.71;90.94;103248.13;4990971;28;127330;-42
2022/01/11 06:00:42;;;;;;;6.65;3.35;;;;;;;0.75;90.93;103256.22;4992533;28;97873;-41
2022/01/11 06:03:07;;;;;;;5.40;2.88;;;;;;;0.78;90.87;103253.59;4992538;28;96686;-42
2022/01/11 06:05:37;;;;;;;2.17;1.33;;;;;;;0.65;90.80;103232.94;4992578;28;96801;-42
2022/01/11 06:08:03;;;;;;;2.55;1.80;;;;;;;0.77;90.79;103245.59;4992195;28;100053;-42
2022/01/11 06:10:28;;;;;;;4.70;3.00;;;;;;;0.78;90.72;103250.94;4990838;28;100194;-42
2022/01/11 06:12:54;;;;;;;4.30;2.15;;;;;;;0.64;90.77;103228.44;4991494;28;121769;-42
2022/01/11 06:15:19;;;;;;;2.67;2.20;;;;;;;0.51;90.88;103203.34;4991822;28;121551;-42
2022/01/11 06:17:44;;;;;;;5.22;2.97;;;;;;;0.79;90.85;103247.41;4991926;28;99870;-42
2022/01/11 06:20:10;;;;;;;7.32;3.17;;;;;;;0.79;90.83;103255.41;4991310;28;117020;-42
2022/01/11 06:22:36;;;;;;;6.78;3.78;;;;;;;0.66;90.64;103223.16;4991810;28;96620;-42
2022/01/11 06:25:03;;;;;;;11.57;4.32;;;;;;;0.77;90.58;103257.16;4992215;28;97102;-42
2022/01/11 06:27:29;;;;;;;8.55;7.07;;;;;;;0.77;90.76;103246.47;4992162;28;98000;-42
2022/01/11 06:29:55;;;;;;;11.30;4.93;;;;;;;0.63;90.39;103232.00;4990500;28;98988;-42
2022/01/11 06:32:20;;;;;;;13.15;4.35;;;;;;;0.69;90.69;103250.78;4991611;28;96575;-42
2022/01/11 06:34:46;;;;;;;8.85;4.57;;;;;;;0.77;90.49;103261.59;4992226;28;96781;-42
2022/01/11 06:37:13;;;;;;;5.28;1.85;;;;;;;0.83;90.62;103267.94;4991900;28;98014;-43
2022/01/11 06:39:39;;;;;;;7.22;3.20;;;;;;;0.85;90.50;103268.84;4991964;28;97776;-41
2022/01/11 06:42:05;;;;;;;7.00;2.35;;;;;;;0.66;90.45;103240.03;4991883;28;96602;-41
2022/01/11 06:44:31;;;;;;;3.78;2.33;;;;;;;0.68;89.96;103259.66;4989315;28;96956;-41
2022/01/11 06:46:57;;;;;;;6.18;3.63;;;;;;;0.78;90.26;103279.38;4994659;28;97979;-41
2022/01/11 06:49:22;;;;;;;4.93;1.90;;;;;;;0.76;90.46;103268.69;4994051;28;98900;-40
2022/01/11 06:51:48;;;;;;;6.88;4.45;;;;;;;0.79;90.44;103273.19;4995602;28;96531;-41
2022/01/11 06:54:13;;;;;;;4.55;3.65;;;;;;;0.82;90.36;103282.13;4995353;28;96734;-41
2022/01/11 06:56:39;;;;;;;9.18;3.78;;;;;;;0.68;90.32;103259.66;4995192;28;97894;-41
2022/01/11 06:59:05;;;;;;;7.20;2.20;;;;;;;0.76;90.23;103273.13;4993818;28;100762;-41
2022/01/11 07:01:30;;;;;;;10.77;5.20;;;;;;;0.77;90.13;103270.47;4995055;28;96571;-41
2022/01/11 07:03:55;;;;;;;8.15;4.10;;;;;;;0.76;90.18;103268.69;4995801;28;96751;-41
2022/01/11 07:06:21;;;;;;;28.88;10.35;;;;;;;0.73;89.88;103257.94;4994240;28;126139;-41
2022/01/11 07:08:46;;;;;;;4.40;2.55;;;;;;;0.55;89.84;103244.28;4994359;28;126328;-41
2022/01/11 07:11:12;;;;;;;9.40;4.53;;;;;;;0.62;90.17;103270.19;4994794;28;96635;-41
2022/01/11 07:13:38;;;;;;;7.35;3.72;;;;;;;0.69;89.90;103276.53;4993868;28;96819;-41
2022/01/11 07:16:04;;;;;;;5.82;3.20;;;;;;;0.56;89.88;103262.09;4993367;28;103847;-40
2022/01/11 07:18:29;;;;;;;6.03;2.88;;;;;;;0.62;89.71;103270.19;4994909;28;102397;-41
2022/01/11 07:20:54;;;;;;;6.85;4.05;;;;;;;0.75;90.07;103293.56;4994556;28;113213;-41
2022/01/11 07:23:19;;;;;;;4.72;2.67;;;;;;;0.72;89.98;103293.50;4994694;28;108488;-41
2022/01/11 07:25:45;;;;;;;5.28;2.85;;;;;;;0.76;89.83;103294.44;4994711;28;111038;-41
2022/01/11 07:28:12;;;;;;;4.35;3.08;;;;;;;0.80;89.67;103302.53;4995032;28;98706;-41
2022/01/11 07:30:37;;;;;;;8.35;3.47;;;;;;;0.70;89.64;103295.25;4993343;28;96831;-41
2022/01/11 07:33:03;;;;;;;5.10;3.15;;;;;;;0.74;89.98;103297.13;4994017;28;96816;-41
2022/01/11 07:35:28;;;;;;;6.70;3.85;;;;;;;0.72;89.92;103297.97;4993930;28;99355;-41
2022/01/11 07:37:54;;;;;;;7.13;4.88;;;;;;;0.66;89.70;103300.50;4994836;28;97811;-41
2022/01/11 07:40:19;;;;;;;7.85;2.92;;;;;;;0.79;89.58;103315.88;4994783;28;96569;-41
2022/01/11 07:42:45;;;;;;;4.20;2.55;;;;;;;0.75;89.71;103311.34;4993436;28;96729;-41
2022/01/11 07:45:10;;;;;;;13.70;3.63;;;;;;;0.78;89.99;103328.28;4993051;28;99733;-41
2022/01/11 07:47:36;;;;;;;8.02;4.32;;;;;;;0.68;89.76;103318.31;4994241;28;98064;-41
2022/01/11 07:50:03;;;;;;;2.80;2.25;;;;;;;0.81;89.52;103331.03;4994700;28;96630;-41
2022/01/11 07:52:28;;;;;;;10.95;3.88;;;;;;;0.82;89.48;103332.81;4993454;28;96918;-41
2022/01/11 07:54:53;;;;;;;5.70;3.78;;;;;;;0.78;89.51;103324.72;4993124;28;126537;-41
2022/01/11 07:57:19;;;;;;;3.13;2.83;;;;;;;0.81;89.41;103336.38;4993475;28;115414;-41
2022/01/11 07:59:45;;;;;;;7.03;4.43;;;;;;;0.80;89.75;103336.34;4994049;28;96603;-41
2022/01/11 08:02:10;;;;;;;13.05;5.63;;;;;;;0.63;89.41;103312.91;4992707;28;96811;-41
2022/01/11 08:04:35;;;;;;;9.20;4.93;;;;;;;0.75;89.39;103338.91;4992154;28;119609;-41
2022/01/11 08:07:02;;;;;;;6.72;3.15;;;;;;;0.78;89.68;103343.41;4993969;28;98819;-41
2022/01/11 08:09:28;;;;;;;4.30;1.88;;;;;;;0.77;89.43;103342.50;4992911;28;96642;-41
2022/01/11 08:11:58;;;;;;;3.92;2.75;;;;;;;0.66;89.16;103314.72;4992719;28;96779;-41
2022/01/11 08:14:25;;;;;;;3.72;2.50;;;;;;;0.57;89.14;103301.19;4992675;28;100908;-41
2022/01/11 08:16:50;;;;;;;6.07;2.90;;;;;;;0.67;89.56;103318.28;4993041;28;101089;-41
2022/01/11 08:19:16;;;;;;;5.60;3.08;;;;;;;0.70;89.17;103316.59;4994330;28;96561;-41
2022/01/11 08:21:41;;;;;;;2.58;1.55;;;;;;;0.67;89.09;103316.53;4992639;28;96694;-41
2022/01/11 08:24:06;;;;;;;2.33;1.80;;;;;;;0.78;89.20;103338.06;4993205;28;110363;-41
2022/01/11 08:26:32;;;;;;;6.68;2.35;;;;;;;0.79;89.30;103335.44;4993988;28;97763;-41
2022/01/11 08:28:57;;;;;;;6.22;3.08;;;;;;;0.70;89.27;103324.59;4994089;28;96591;-41
2022/01/11 08:31:22;;;;;;;5.50;1.73;;;;;;;0.82;89.19;103355.94;4993948;28;96925;-41
2022/01/11 08:33:48;;;;;;;5.30;1.67;;;;;;;0.80;88.85;103349.66;4993538;28;97878;-40
2022/01/11 08:36:13;;;;;;;5.63;2.08;;;;;;;0.83;88.91;103350.66;4993808;28;97750;-40
2022/01/11 08:38:38;;;;;;;4.43;3.08;;;;;;;0.84;89.05;103355.09;4993976;28;96532;-41
2022/01/11 08:41:04;;;;;;;6.45;3.15;;;;;;;0.76;88.97;103329.13;4994194;28;96731;-41
2022/01/11 08:43:30;;;;;;;1.98;1.08;;;;;;;0.89;89.18;103354.28;4992242;28;100976;-41
2022/01/11 08:45:55;;;;;;;8.35;5.20;;;;;;;0.81;89.24;103333.72;4993502;28;97325;-41
2022/01/11 08:48:21;;;;;;;3.83;2.60;;;;;;;0.94;88.74;103361.50;4993338;28;96529;-41
2022/01/11 08:50:47;;;;;;;5.80;3.30;;;;;;;0.95;88.86;103346.38;4993520;28;96795;-41
2022/01/11 08:53:12;;;;;;;4.43;2.78;;;;;;;0.89;88.95;103341.84;4993328;28;98432;-41
2022/01/11 08:55:37;;;;;;;4.95;2.95;;;;;;;0.90;88.92;103334.72;4993605;28;97276;-41
2022/01/11 08:58:03;;;;;;;2.33;1.38;;;;;;;0.86;88.45;103341.78;4993622;28;96827;-41
2022/01/11 09:00:28;;;;;;;4.82;2.72;;;;;;;0.84;88.21;103328.41;4992029;28;97014;-41
2022/01/11 09:02:54;;;;;;;4.85;3.25;;;;;;;0.92;88.10;103341.00;4993056;28;99801;-41
2022/01/11 09:05:21;;;;;;;4.15;2.47;;;;;;;0.88;88.57;103332.03;4993493;28;98726;-41
2022/01/11 09:07:48;;;;;;;11.00;4.15;;;;;;;1.00;88.37;103358.03;4991377;28;96566;-41
2022/01/11 09:10:14;;;;;;;6.13;2.88;;;;;;;0.87;88.20;103337.34;4991845;28;96842;-41
2022/01/11 09:12:40;;;;;;;7.95;2.97;;;;;;;1.04;88.44;103360.78;4991366;28;101060;-41
2022/01/11 09:15:09;;;;;;;4.78;3.25;;;;;;;1.05;88.14;103365.28;4992881;28;97743;-41
2022/01/11 09:17:35;;;;;;;1.25;0.82;;;;;;;0.91;87.84;103347.22;4991943;28;96683;-40
2022/01/11 09:20:01;;;;;;;4.78;3.33;;;;;;;1.06;88.67;103376.84;4991970;28;96795;-41
2022/01/11 09:22:27;;;;;;;8.70;2.55;;;;;;;1.02;87.99;103374.97;4992911;28;99554;-41
2022/01/11 09:24:55;;;;;;;3.58;2.25;;;;;;;1.06;88.45;103383.09;4993143;28;97809;-40
2022/01/11 09:27:20;;;;;;;6.22;2.90;;;;;;;1.05;88.43;103383.06;4991632;28;96577;-41
2022/01/11 09:29:46;;;;;;;4.60;3.08;;;;;;;1.02;88.06;103374.97;4991880;28;96789;-41
2022/01/11 09:32:12;;;;;;;10.18;3.00;;;;;;;0.79;88.22;103332.78;4992320;28;98891;-41
2022/01/11 09:34:39;;;;;;;2.30;1.83;;;;;;;1.05;88.44;103380.41;4991390;28;101211;-41
2022/01/11 09:37:06;;;;;;;8.13;4.13;;;;;;;1.02;88.42;103372.31;4992417;28;96557;-41
2022/01/11 09:39:31;;;;;;;8.18;2.42;;;;;;;1.01;88.45;103375.88;4991457;28;100017;-41
2022/01/11 09:41:59;;;;;;;7.05;3.80;;;;;;;0.85;88.49;103342.66;4992772;28;105135;-41
2022/01/11 09:44:25;;;;;;;6.57;3.03;;;;;;;1.02;88.40;103374.97;4992575;28;97796;-41
2022/01/11 09:46:52;;;;;;;5.75;3.70;;;;;;;1.03;88.64;103380.38;4992572;28;96824;-41
2022/01/11 09:49:17;;;;;;;3.80;3.08;;;;;;;1.01;88.16;103374.09;4991320;28;96911;-41
2022/01/11 09:51:42;;;;;;;3.30;1.58;;;;;;;1.03;88.57;103375.03;4992192;28;119334;-41
2022/01/11 09:54:08;;;;;;;7.22;3.63;;;;;;;1.00;88.26;103371.38;4992459;28;111179;-41
2022/01/11 09:56:35;;;;;;;10.00;3.95;;;;;;;1.12;88.69;103395.66;4992180;28;96627;-41
2022/01/11 09:59:01;;;;;;;6.18;3.72;;;;;;;1.12;88.12;103400.06;4991242;28;96807;-41
2022/01/11 10:01:26;;;;;;;3.58;2.13;;;;;;;1.10;88.61;103383.13;4990517;28;101269;-41
2022/01/11 10:04:00;;;;;;;7.55;3.55;;;;;;;1.13;88.30;103388.53;4991482;28;124038;-41
2022/01/11 10:06:26;;;;;;;6.63;1.63;;;;;;;1.10;87.81;103389.41;4991056;28;96690;-41
2022/01/11 10:09:10;;;;;;;2.65;1.52;;;;;;;0.98;87.78;103359.81;4991209;28;96891;-41
2022/01/11 10:11:41;;;;;;;7.70;2.53;;;;;;;1.15;87.91;103385.03;4991052;28;98837;-41
2022/01/11 10:14:31;;;;;;;2.30;1.55;;;;;;;1.14;88.11;103380.53;4990838;28;100328;-41
2022/01/11 10:17:18;;;;;;;1.50;0.98;;;;;;;1.17;87.95;103385.03;4992609;28;96720;-41
2022/01/11 10:19:46;;;;;;;1.27;0.88;;;;;;;1.09;87.59;103357.31;4991571;28;96630;-41
2022/01/11 10:22:21;;;;;;;6.13;3.53;;;;;;;1.20;87.48;103366.44;4990866;28;101335;-41
2022/01/11 10:24:52;;;;;;;1.08;0.75;;;;;;;1.37;87.17;103380.97;4990761;28;100848;-41
2022/01/11 10:27:19;;;;;;;6.25;3.30;;;;;;;1.45;87.23;103391.78;4990463;28;96981;-41
2022/01/11 10:29:48;;;;;;;6.25;4.55;;;;;;;1.33;87.04;103363.09;4990687;28;96810;-41
2022/01/11 10:32:16;;;;;;;4.78;3.10;;;;;;;1.43;86.77;103383.75;4991368;28;97888;-41
2022/01/11 10:34:47;;;;;;;8.20;3.88;;;;;;;1.48;86.73;103390.06;4990404;28;101142;-41
2022/01/11 10:37:13;;;;;;;6.78;3.28;;;;;;;1.46;86.60;103391.81;4990754;28;96550;-41
2022/01/11 10:39:41;;;;;;;3.55;1.77;;;;;;;1.34;86.15;103377.38;4992253;28;96497;-41
2022/01/11 10:42:23;;;;;;;7.38;3.22;;;;;;;1.50;86.91;103416.78;4991984;28;97956;-41
2022/01/11 10:44:55;;;;;;;5.97;1.70;;;;;;;1.44;86.31;103416.69;4990917;28;101171;-41
2022/01/11 10:47:42;;;;;;;1.60;0.90;;;;;;;1.44;86.75;103414.91;4992311;28;96465;-41
2022/01/11 10:50:13;;;;;;;5.32;3.13;;;;;;;1.45;86.88;103416.75;4990581;28;96635;-41
2022/01/11 10:52:40;;;;;;;4.93;1.93;;;;;;;1.39;86.88;103394.38;4990019;28;101482;-41
2022/01/11 10:55:07;;;;;;;3.83;2.20;;;;;;;1.52;86.50;103415.06;4990127;28;100428;-41
2022/01/11 10:57:37;;;;;;;3.22;2.30;;;;;;;1.47;86.75;103392.72;4991461;28;96485;-41
2022/01/11 11:00:16;;;;;;;6.10;2.38;;;;;;;1.70;86.26;103419.81;4990487;28;96820;-41
2022/01/11 11:02:43;;;;;;;6.40;2.10;;;;;;;1.65;86.07;103397.47;4991924;28;97972;-41
2022/01/11 11:05:11;;;;;;;5.20;2.97;;;;;;;1.95;85.99;103417.53;4990165;28;100744;-41
2022/01/11 11:07:37;;;;;;;9.93;2.53;;;;;;;2.05;85.16;103407.03;4991625;28;96575;-41
2022/01/11 11:10:02;;;;;;;1.92;1.50;;;;;;;2.08;84.89;103391.03;4992275;28;96793;-41
2022/01/11 11:12:28;;;;;;;15.48;4.10;;;;;;;2.40;85.25;103397.72;4991684;28;97399;-41
2022/01/11 11:14:56;;;;;;;7.90;2.47;;;;;;;2.44;84.02;103364.78;4990812;28;117471;-40
2022/01/11 11:17:30;;;;;;;5.10;1.73;;;;;;;2.83;82.41;103404.50;4989668;28;97347;-41
2022/01/11 11:20:10;;;;;;;8.95;3.45;;;;;;;2.82;82.99;103388.44;4973567;28;97343;-41
2022/01/11 11:22:35;;;;;;;6.95;3.38;;;;;;;3.06;82.32;103412.81;4989961;28;101399;-40
2022/01/11 11:25:03;;;;;;;3.42;3.10;;;;;;;3.11;81.68;103407.50;4990951;28;113217;-41
2022/01/11 11:27:31;;;;;;;1.52;1.25;;;;;;;3.17;81.68;103411.16;4990122;28;96566;-41
2022/01/11 11:29:58;;;;;;;11.20;3.22;;;;;;;3.08;82.22;103375.34;4990101;28;96555;-41